Time;durP1;ratioP1;P1;durP2;ratioP2;P2;SDS_P1;SDS_P2;PMS_P1;PMS_P2;Temp;Humidity;BMP_temperature;BMP_pressure;BME280_temperature;BME280_humidity;BME280_pressure;Samples;Min_cycle;Max_cycle;Signal;HPM_P1;HPM_P2
2021/04/17 00:00:06;;;;;;;22.13;14.13;;;;;;;0.84;100.00;96530.00;1024285;29;20034;-62
2021/04/17 00:00:36;;;;;;;24.58;15.02;;;;;;;0.83;100.00;96533.53;1032233;28;20029;-61
2021/04/17 00:01:07;;;;;;;23.33;15.30;;;;;;;0.82;100.00;96527.47;1020273;29;20050;-63
2021/04/17 00:01:39;;;;;;;23.15;14.13;;;;;;;0.81;100.00;96525.78;1024276;29;20022;-62
2021/04/17 00:02:10;;;;;;;25.83;15.77;;;;;;;0.85;100.00;96527.25;1024176;28;20019;-62
2021/04/17 00:02:41;;;;;;;23.08;14.70;;;;;;;0.82;100.00;96527.47;1020221;29;20046;-62
2021/04/17 00:03:12;;;;;;;24.27;15.18;;;;;;;0.82;100.00;96526.63;1036259;28;20029;-62
2021/04/17 00:03:42;;;;;;;23.30;14.13;;;;;;;0.81;100.00;96525.78;1028167;28;20022;-62
2021/04/17 00:04:13;;;;;;;26.15;15.27;;;;;;;0.80;100.00;96525.88;1032156;28;20061;-62
2021/04/17 00:04:44;;;;;;;24.33;14.73;;;;;;;0.79;100.00;96522.44;1028322;28;20022;-62
2021/04/17 00:05:15;;;;;;;23.95;15.18;;;;;;;0.78;100.00;96531.22;1036265;28;20065;-62
2021/04/17 00:05:45;;;;;;;23.25;14.32;;;;;;;0.74;100.00;96520.13;1028234;28;20106;-63
2021/04/17 00:06:16;;;;;;;21.92;15.13;;;;;;;0.77;100.00;96513.88;1032182;28;20022;-62
2021/04/17 00:06:47;;;;;;;26.45;15.50;;;;;;;0.78;100.00;96518.13;1032264;28;20018;-62
2021/04/17 00:07:18;;;;;;;25.70;15.70;;;;;;;0.77;100.00;96526.94;1020278;29;20122;-62
2021/04/17 00:07:48;;;;;;;22.75;14.75;;;;;;;0.73;100.00;96521.09;1028252;28;20469;-62
2021/04/17 00:08:19;;;;;;;24.65;14.77;;;;;;;0.65;100.00;96512.06;1024138;29;20031;-61
2021/04/17 00:08:50;;;;;;;22.67;14.15;;;;;;;0.71;100.00;96519.50;1020291;29;20443;-62
2021/04/17 00:09:23;;;;;;;24.23;14.77;;;;;;;0.72;100.00;96526.41;1024258;29;20081;-63
2021/04/17 00:09:54;;;;;;;24.55;15.68;;;;;;;0.69;100.00;96516.97;1024233;29;20023;-62
2021/04/17 00:10:25;;;;;;;22.92;14.40;;;;;;;0.68;100.00;96524.91;1028164;28;20027;-62
2021/04/17 00:10:56;;;;;;;26.20;15.25;;;;;;;0.65;100.00;96520.75;1032832;28;20018;-63
2021/04/17 00:11:27;;;;;;;24.00;15.55;;;;;;;0.66;100.00;96519.81;1033419;28;20447;-63
2021/04/17 00:11:59;;;;;;;22.20;14.63;;;;;;;0.65;100.00;96520.75;1029387;28;20025;-63
2021/04/17 00:12:30;;;;;;;26.75;14.98;;;;;;;0.66;100.00;96516.34;1029081;28;20027;-63
2021/04/17 00:13:01;;;;;;;26.30;15.52;;;;;;;0.63;100.00;96514.78;1025449;29;20107;-63
2021/04/17 00:13:32;;;;;;;24.17;15.02;;;;;;;0.64;100.00;96521.66;1037137;28;20022;-62
2021/04/17 00:14:05;;;;;;;23.60;15.35;;;;;;;0.64;100.00;96526.88;1033648;28;20024;-63
2021/04/17 00:14:36;;;;;;;23.85;15.27;;;;;;;0.64;100.00;96526.88;1030059;28;20023;-63
2021/04/17 00:15:07;;;;;;;23.45;14.82;;;;;;;0.61;100.00;96516.66;1033945;28;20026;-64
2021/04/17 00:15:38;;;;;;;24.73;15.50;;;;;;;0.61;100.00;96521.03;1038053;28;20511;-63
2021/04/17 00:16:09;;;;;;;26.27;14.65;;;;;;;0.60;100.00;96517.59;1025653;29;20023;-62
2021/04/17 00:16:40;;;;;;;25.23;15.70;;;;;;;0.59;100.00;96520.28;1025544;29;20532;-64
2021/04/17 00:17:10;;;;;;;23.92;15.50;;;;;;;0.57;100.00;96515.16;1026184;29;20020;-64
2021/04/17 00:17:41;;;;;;;25.65;15.52;;;;;;;0.57;100.00;96517.78;1026908;29;20015;-62
2021/04/17 00:18:12;;;;;;;25.23;15.65;;;;;;;0.51;100.00;96513.78;1028114;28;20020;-62
2021/04/17 00:18:44;;;;;;;26.77;16.08;;;;;;;0.53;100.00;96517.13;1024109;29;20027;-62
2021/04/17 00:19:14;;;;;;;24.85;15.63;;;;;;;0.54;100.00;96517.97;1020125;29;20043;-62
2021/04/17 00:19:48;;;;;;;27.60;15.45;;;;;;;0.50;100.00;96512.09;1024188;29;20074;-62
2021/04/17 00:20:18;;;;;;;23.15;15.07;;;;;;;0.49;100.00;96515.69;1028126;28;20481;-63
2021/04/17 00:20:49;;;;;;;24.02;14.80;;;;;;;0.49;100.00;96507.84;1032176;28;20039;-62
2021/04/17 00:21:20;;;;;;;26.50;15.85;;;;;;;0.48;100.00;96508.75;1032159;28;20055;-61
2021/04/17 00:21:50;;;;;;;26.80;15.80;;;;;;;0.47;100.00;96506.25;1032252;28;20018;-62
2021/04/17 00:22:21;;;;;;;24.80;16.40;;;;;;;0.48;100.00;96514.00;1020228;29;20075;-62
2021/04/17 00:22:52;;;;;;;24.83;15.15;;;;;;;0.48;100.00;96510.53;1032140;28;20026;-62
2021/04/17 00:23:23;;;;;;;28.83;16.90;;;;;;;0.47;100.00;96516.69;1028107;28;20374;-61
2021/04/17 00:23:54;;;;;;;25.70;14.98;;;;;;;0.46;100.00;96510.63;1024103;29;20053;-62
2021/04/17 00:24:24;;;;;;;24.77;15.35;;;;;;;0.45;100.00;96511.56;1036189;28;20081;-62
2021/04/17 00:24:55;;;;;;;26.27;16.67;;;;;;;0.48;100.00;96514.00;1032116;28;20023;-61
2021/04/17 00:25:26;;;;;;;24.77;15.45;;;;;;;0.46;100.00;96510.63;1032107;28;20018;-62
2021/04/17 00:25:57;;;;;;;24.90;15.48;;;;;;;0.48;100.00;96513.16;1028129;28;20023;-62
2021/04/17 00:26:30;;;;;;;26.48;15.75;;;;;;;0.46;100.00;96515.03;1024146;29;20118;-61
2021/04/17 00:27:02;;;;;;;24.73;14.27;;;;;;;0.46;100.00;96520.25;1028164;28;20023;-62
2021/04/17 00:27:33;;;;;;;26.98;15.75;;;;;;;0.46;100.00;96515.03;1036152;28;20017;-62
2021/04/17 00:28:04;;;;;;;29.02;16.42;;;;;;;0.44;100.00;96507.31;1028120;28;20026;-61
2021/04/17 00:28:35;;;;;;;24.98;16.15;;;;;;;0.42;100.00;96509.19;1028125;28;20015;-62
2021/04/17 00:29:06;;;;;;;27.38;16.90;;;;;;;0.42;100.00;96513.53;1028098;28;20019;-61
2021/04/17 00:29:36;;;;;;;24.70;15.23;;;;;;;0.40;100.00;96511.06;1028055;28;20051;-62
2021/04/17 00:30:08;;;;;;;25.80;16.15;;;;;;;0.38;100.00;96510.28;1024257;29;20019;-61
2021/04/17 00:30:39;;;;;;;26.00;15.43;;;;;;;0.40;100.00;96515.41;1024197;29;20046;-63
2021/04/17 00:31:09;;;;;;;25.58;15.55;;;;;;;0.41;100.00;96512.72;1032196;28;20029;-61
2021/04/17 00:31:40;;;;;;;26.17;17.15;;;;;;;0.42;100.00;96509.19;1024075;29;20110;-62
2021/04/17 00:32:11;;;;;;;27.40;16.60;;;;;;;0.44;100.00;96511.69;1032196;28;20047;-63
2021/04/17 00:32:42;;;;;;;29.17;15.63;;;;;;;0.44;100.00;96512.53;1032026;28;20022;-63
2021/04/17 00:33:13;;;;;;;26.52;16.45;;;;;;;0.43;100.00;96505.59;1016177;29;20020;-62
2021/04/17 00:33:44;;;;;;;28.05;16.58;;;;;;;0.41;100.00;96502.25;1019822;29;20070;-62
2021/04/17 00:34:15;;;;;;;26.25;16.13;;;;;;;0.43;100.00;96510.84;1024150;29;20023;-62
2021/04/17 00:34:45;;;;;;;25.88;15.40;;;;;;;0.41;100.00;96511.88;1024036;29;20030;-62
2021/04/17 00:35:16;;;;;;;24.85;16.08;;;;;;;0.39;100.00;96509.38;1036096;28;20033;-61
2021/04/17 00:35:47;;;;;;;28.42;16.80;;;;;;;0.37;100.00;96506.84;1027978;28;20076;-63
2021/04/17 00:36:18;;;;;;;24.65;15.50;;;;;;;0.36;100.00;96499.13;1020200;29;20510;-61
2021/04/17 00:36:49;;;;;;;28.77;16.73;;;;;;;0.36;100.00;96505.16;1028118;28;20508;-65
2021/04/17 00:37:20;;;;;;;25.13;15.52;;;;;;;0.33;100.00;96497.56;1024104;29;20038;-62
2021/04/17 00:37:51;;;;;;;27.90;16.00;;;;;;;0.33;100.00;96505.38;1020068;29;20047;-62
2021/04/17 00:38:21;;;;;;;25.88;16.55;;;;;;;0.33;100.00;96509.75;1020231;29;20504;-62
2021/04/17 00:38:52;;;;;;;28.25;16.10;;;;;;;0.32;100.00;96502.88;1024145;28;20117;-62
2021/04/17 00:39:23;;;;;;;29.02;17.00;;;;;;;0.32;100.00;96508.91;1024063;29;20182;-62
2021/04/17 00:39:54;;;;;;;25.83;16.10;;;;;;;0.30;100.00;96502.97;1028023;28;20118;-62
2021/04/17 00:40:25;;;;;;;26.25;16.45;;;;;;;0.30;100.00;96500.34;1024082;29;20086;-62
2021/04/17 00:40:56;;;;;;;27.75;16.30;;;;;;;0.31;100.00;96498.56;1032121;28;20153;-61
2021/04/17 00:41:27;;;;;;;28.00;16.75;;;;;;;0.32;100.00;96498.47;1028148;28;20023;-62
2021/04/17 00:41:58;;;;;;;30.85;17.23;;;;;;;0.32;100.00;96500.25;1032168;28;20033;-62
2021/04/17 00:42:29;;;;;;;28.77;17.85;;;;;;;0.31;100.00;96502.00;1020043;29;20106;-61
2021/04/17 00:43:00;;;;;;;26.40;16.45;;;;;;;0.30;100.00;96499.53;1028032;28;20019;-63
2021/04/17 00:43:31;;;;;;;27.23;16.98;;;;;;;0.30;100.00;96495.13;1031961;28;20011;-61
2021/04/17 00:44:02;;;;;;;27.65;17.05;;;;;;;0.28;100.00;96497.00;1027979;28;20026;-62
2021/04/17 00:44:34;;;;;;;27.65;15.90;;;;;;;0.27;100.00;96499.72;1020099;29;20123;-62
2021/04/17 00:45:06;;;;;;;27.02;17.27;;;;;;;0.28;100.00;96493.53;1024098;29;20020;-61
2021/04/17 00:45:37;;;;;;;27.63;16.85;;;;;;;0.25;100.00;96496.38;1032063;28;20011;-62
2021/04/17 00:46:08;;;;;;;29.75;17.55;;;;;;;0.24;100.00;96497.28;1031907;28;20029;-62
2021/04/17 00:46:39;;;;;;;29.20;16.98;;;;;;;0.25;100.00;96493.75;1028053;28;20018;-63
2021/04/17 00:47:10;;;;;;;26.23;16.05;;;;;;;0.25;100.00;96488.53;1020140;29;20020;-62
2021/04/17 00:47:41;;;;;;;29.83;17.85;;;;;;;0.24;100.00;96494.69;1020166;29;20074;-62
2021/04/17 00:48:13;;;;;;;26.13;15.88;;;;;;;0.24;100.00;96489.47;1024090;29;20401;-61
2021/04/17 00:48:44;;;;;;;27.58;16.77;;;;;;;0.24;100.00;96489.47;1028074;28;20018;-62
2021/04/17 00:49:15;;;;;;;29.80;17.23;;;;;;;0.23;100.00;96486.00;1036067;28;20017;-62
2021/04/17 00:49:46;;;;;;;27.15;16.83;;;;;;;0.24;100.00;96486.84;1024008;29;20012;-61
2021/04/17 00:50:16;;;;;;;27.27;15.75;;;;;;;0.22;100.00;96492.16;1027895;28;20022;-62
2021/04/17 00:50:47;;;;;;;27.30;16.92;;;;;;;0.24;100.00;96489.47;1027992;28;20101;-62
2021/04/17 00:51:18;;;;;;;27.75;17.42;;;;;;;0.22;100.00;96484.31;1024047;29;20090;-62
2021/04/17 00:51:49;;;;;;;27.73;16.58;;;;;;;0.22;100.00;96488.72;1032205;28;20038;-62
2021/04/17 00:52:20;;;;;;;28.80;17.08;;;;;;;0.22;100.00;96491.34;1027846;28;20473;-63
2021/04/17 00:52:52;;;;;;;28.60;17.50;;;;;;;0.20;100.00;96483.59;1028147;28;20034;-62
2021/04/17 00:53:23;;;;;;;28.92;17.25;;;;;;;0.20;100.00;96486.22;1032007;28;20014;-61
2021/04/17 00:53:53;;;;;;;27.90;16.85;;;;;;;0.19;100.00;96479.28;1027977;28;20015;-62
2021/04/17 00:54:25;;;;;;;27.52;17.35;;;;;;;0.18;100.00;96478.47;1023867;29;20062;-62
2021/04/17 00:54:56;;;;;;;29.73;17.10;;;;;;;0.19;100.00;96481.91;1016138;29;20024;-62
2021/04/17 00:55:27;;;;;;;29.52;17.65;;;;;;;0.20;100.00;96482.75;1016169;29;20155;-62
2021/04/17 00:55:58;;;;;;;32.40;18.10;;;;;;;0.20;100.00;96480.97;1024071;29;20022;-62
2021/04/17 00:56:28;;;;;;;26.50;16.70;;;;;;;0.20;100.00;96482.75;1019868;29;20558;-62
2021/04/17 00:56:59;;;;;;;29.08;17.20;;;;;;;0.21;100.00;96474.84;1028039;28;20038;-62
2021/04/17 00:57:30;;;;;;;28.70;16.67;;;;;;;0.20;100.00;96477.53;1020032;29;20494;-62
2021/04/17 00:58:03;;;;;;;30.75;17.55;;;;;;;0.17;100.00;96479.44;1020126;29;20016;-61
2021/04/17 00:58:34;;;;;;;31.05;17.98;;;;;;;0.17;100.00;96476.81;1023885;29;20023;-61
2021/04/17 00:59:05;;;;;;;32.38;19.13;;;;;;;0.16;100.00;96475.13;1032046;28;20109;-62
2021/04/17 00:59:36;;;;;;;31.30;19.50;;;;;;;0.16;100.00;96477.72;1027965;28;20022;-61
2021/04/17 01:00:07;;;;;;;29.92;17.90;;;;;;;0.16;100.00;96477.72;1028046;28;20392;-63
2021/04/17 01:00:38;;;;;;;29.92;17.88;;;;;;;0.16;100.00;96477.72;1027912;28;20023;-62
2021/04/17 01:01:09;;;;;;;27.50;16.60;;;;;;;0.17;100.00;96478.56;1024107;29;20015;-62
2021/04/17 01:01:40;;;;;;;29.15;17.85;;;;;;;0.16;100.00;96472.50;1032047;28;20444;-62
2021/04/17 01:02:10;;;;;;;31.00;17.65;;;;;;;0.18;100.00;96477.63;1019917;29;20030;-62
2021/04/17 01:02:47;;;;;;;31.38;17.98;;;;;;;0.16;100.00;96472.50;1020040;29;20016;-62
2021/04/17 01:03:28;;;;;;;35.00;19.23;;;;;;;0.15;100.00;96470.81;1023954;29;20501;-61
2021/04/17 01:04:04;;;;;;;34.20;19.38;;;;;;;0.15;100.00;96476.03;1023960;29;20024;-62
2021/04/17 01:04:44;;;;;;;31.92;17.90;;;;;;;0.14;100.00;96474.38;1016020;29;20035;-62
2021/04/17 01:05:15;;;;;;;30.80;18.20;;;;;;;0.14;100.00;96474.38;1020088;29;20482;-62
2021/04/17 01:05:47;;;;;;;31.05;17.45;;;;;;;0.13;100.00;96477.09;1028097;28;20038;-63
2021/04/17 01:06:22;;;;;;;29.33;17.30;;;;;;;0.12;100.00;96473.66;1031972;28;20019;-62
2021/04/17 01:06:58;;;;;;;31.00;19.27;;;;;;;0.12;100.00;96475.41;1032874;28;20085;-62
2021/04/17 01:07:34;;;;;;;31.45;17.38;;;;;;;0.09;100.00;96476.47;1036057;28;20065;-62
2021/04/17 01:08:08;;;;;;;28.58;17.00;;;;;;;0.10;100.00;96469.44;1029800;28;20022;-62
2021/04/17 01:08:49;;;;;;;29.90;17.80;;;;;;;0.08;100.00;96469.53;1032038;28;20105;-62
2021/04/17 01:09:24;;;;;;;31.23;18.02;;;;;;;0.07;100.00;96470.50;1023938;29;20019;-62
2021/04/17 01:10:06;;;;;;;34.40;18.45;;;;;;;0.07;100.00;96470.50;1023978;29;20019;-63
2021/04/17 01:10:39;;;;;;;30.38;17.48;;;;;;;0.06;100.00;96473.22;1028427;28;20026;-63
2021/04/17 01:11:14;;;;;;;28.42;17.08;;;;;;;0.05;100.00;96477.56;1034434;28;20029;-62
2021/04/17 01:11:47;;;;;;;34.65;18.23;;;;;;;0.03;100.00;96476.84;1036064;28;20476;-62
2021/04/17 01:12:27;;;;;;;32.17;19.58;;;;;;;0.03;100.00;96476.00;1023884;29;20026;-61
2021/04/17 01:12:58;;;;;;;27.50;17.08;;;;;;;0.01;100.00;96468.28;1035920;28;20010;-62
2021/04/17 01:13:29;;;;;;;31.35;18.63;;;;;;;0.02;100.00;96479.53;1027750;28;20014;-61
2021/04/17 01:14:00;;;;;;;31.13;17.52;;;;;;;-0.01;100.00;96480.59;1031859;28;20105;-64
2021/04/17 01:14:31;;;;;;;31.67;17.45;;;;;;;0.00;100.00;96474.44;1028083;28;20031;-61
2021/04/17 01:15:03;;;;;;;29.08;17.52;;;;;;;-0.01;100.00;96475.38;1019914;28;20023;-62
2021/04/17 01:15:34;;;;;;;33.03;19.13;;;;;;;-0.02;100.00;96468.47;1036010;28;20468;-61
2021/04/17 01:16:05;;;;;;;32.25;18.95;;;;;;;-0.03;100.00;96480.69;1035893;28;20029;-62
2021/04/17 01:16:36;;;;;;;33.53;19.20;;;;;;;-0.04;100.00;96475.56;1024021;28;20083;-62
2021/04/17 01:17:07;;;;;;;31.83;18.05;;;;;;;-0.05;100.00;96473.91;1023858;29;20023;-63
2021/04/17 01:17:38;;;;;;;33.08;19.35;;;;;;;-0.06;100.00;96467.00;1031907;28;20023;-61
2021/04/17 01:18:09;;;;;;;35.35;19.33;;;;;;;-0.07;100.00;96478.34;1024018;29;20027;-62
2021/04/17 01:18:40;;;;;;;32.22;18.88;;;;;;;-0.12;100.00;96475.19;1023940;29;20020;-63
2021/04/17 01:19:13;;;;;;;32.92;19.30;;;;;;;-0.10;100.00;96476.78;1035794;28;20088;-62
2021/04/17 01:19:56;;;;;;;32.83;17.83;;;;;;;-0.10;100.00;96474.19;1027798;28;20018;-63
2021/04/17 01:20:32;;;;;;;33.22;18.42;;;;;;;-0.09;100.00;96485.44;1027901;28;20022;-62
2021/04/17 01:21:03;;;;;;;33.80;18.90;;;;;;;-0.11;100.00;96480.31;1027827;28;20097;-62
2021/04/17 01:21:34;;;;;;;32.33;18.55;;;;;;;-0.11;100.00;96477.72;1027747;28;20763;-62
2021/04/17 01:22:07;;;;;;;29.13;17.98;;;;;;;-0.11;100.00;96479.50;1027883;28;20023;-62
2021/04/17 01:22:38;;;;;;;31.35;18.00;;;;;;;-0.13;100.00;96486.59;1031839;28;20027;-62
2021/04/17 01:23:32;;;;;;;29.05;17.08;;;;;;;-0.12;100.00;96477.81;1027962;28;20547;-62
2021/04/17 01:24:07;;;;;;;32.92;18.15;;;;;;;-0.13;100.00;96476.16;1031851;28;20032;-62
2021/04/17 01:24:39;;;;;;;37.47;19.73;;;;;;;-0.14;100.00;96474.47;1031939;28;20524;-62
2021/04/17 01:25:13;;;;;;;34.42;18.20;;;;;;;-0.14;100.00;96477.94;1023930;29;20113;-62
2021/04/17 01:25:55;;;;;;;32.67;18.67;;;;;;;-0.16;100.00;96481.56;1027740;28;20029;-62
2021/04/17 01:26:26;;;;;;;32.72;18.42;;;;;;;-0.16;100.00;96476.34;1022180;29;20016;-61
2021/04/17 01:26:56;;;;;;;32.10;17.85;;;;;;;-0.17;100.00;96469.44;1023866;29;20015;-60
2021/04/17 01:27:27;;;;;;;30.70;17.42;;;;;;;-0.17;100.00;96472.03;1015994;29;20055;-61
2021/04/17 01:27:58;;;;;;;31.08;17.63;;;;;;;-0.19;100.00;96477.38;1027940;28;20054;-61
2021/04/17 01:28:31;;;;;;;29.63;17.75;;;;;;;-0.20;100.00;96476.53;1031934;28;20033;-62
2021/04/17 01:29:12;;;;;;;30.08;17.50;;;;;;;-0.21;100.00;96480.09;1027961;28;20051;-63
2021/04/17 01:29:43;;;;;;;30.77;17.58;;;;;;;-0.21;100.00;96480.09;1027850;28;20073;-62
2021/04/17 01:30:16;;;;;;;33.83;19.35;;;;;;;-0.22;100.00;96481.00;1035933;28;20479;-62
2021/04/17 01:30:48;;;;;;;34.15;19.10;;;;;;;-0.21;100.00;96482.69;1027879;28;20015;-62
2021/04/17 01:31:21;;;;;;;37.40;19.10;;;;;;;-0.22;100.00;96477.56;1027881;28;20030;-62
2021/04/17 01:31:52;;;;;;;31.45;18.48;;;;;;;-0.23;100.00;96473.25;1031831;28;20073;-63
2021/04/17 01:32:23;;;;;;;31.67;17.67;;;;;;;-0.23;100.00;96481.09;1027915;28;20081;-61
2021/04/17 01:32:54;;;;;;;34.60;18.05;;;;;;;-0.25;100.00;96475.97;1031827;28;20069;-62
2021/04/17 01:33:28;;;;;;;34.00;19.40;;;;;;;-0.26;100.00;96473.44;1023699;29;20023;-62
2021/04/17 01:34:01;;;;;;;32.83;18.42;;;;;;;-0.26;100.00;96476.06;1023714;29;20086;-62
2021/04/17 01:34:32;;;;;;;33.80;19.52;;;;;;;-0.26;100.00;96474.31;1027721;28;20102;-62
2021/04/17 01:35:06;;;;;;;33.08;18.90;;;;;;;-0.26;100.00;96479.53;1020014;29;20070;-62
2021/04/17 01:35:37;;;;;;;33.15;18.58;;;;;;;-0.26;100.00;96476.06;1023889;29;20032;-62
2021/04/17 01:36:07;;;;;;;35.75;20.27;;;;;;;-0.26;100.00;96479.53;1023774;29;20084;-62
2021/04/17 01:36:38;;;;;;;32.95;19.35;;;;;;;-0.27;100.00;96477.84;1036036;28;20411;-62
2021/04/17 01:37:10;;;;;;;34.33;19.15;;;;;;;-0.26;100.00;96474.31;1023917;29;20033;-62
2021/04/17 01:37:52;;;;;;;35.05;19.73;;;;;;;-0.28;100.00;96472.72;1027879;28;20026;-61
2021/04/17 01:38:24;;;;;;;33.78;18.48;;;;;;;-0.28;100.00;96472.72;1035936;28;20168;-62
2021/04/17 01:39:13;;;;;;;37.15;19.67;;;;;;;-0.32;100.00;96476.47;1031798;28;20019;-61
2021/04/17 01:39:43;;;;;;;32.08;17.95;;;;;;;-0.31;100.00;96473.75;1023874;29;20019;-61
2021/04/17 01:40:15;;;;;;;35.17;18.58;;;;;;;-0.29;100.00;96476.28;1023760;29;20040;-62
2021/04/17 01:40:57;;;;;;;32.38;18.35;;;;;;;-0.29;100.00;96479.72;1031824;28;20029;-62
2021/04/17 01:41:30;;;;;;;39.45;19.73;;;;;;;-0.29;100.00;96471.88;1019838;29;20466;-63
2021/04/17 01:42:04;;;;;;;34.78;18.48;;;;;;;-0.30;100.00;96475.41;1023786;29;20015;-63
2021/04/17 01:42:36;;;;;;;37.50;21.15;;;;;;;-0.32;100.00;96476.47;1027688;28;20023;-62
2021/04/17 01:43:06;;;;;;;32.38;18.50;;;;;;;-0.32;100.00;96477.28;1019824;29;20474;-62
2021/04/17 01:43:37;;;;;;;36.28;19.73;;;;;;;-0.32;100.00;96474.69;1023581;29;20012;-61
2021/04/17 01:44:11;;;;;;;34.35;19.35;;;;;;;-0.32;100.00;96477.28;1019789;29;20067;-62
2021/04/17 01:44:46;;;;;;;34.90;18.90;;;;;;;-0.30;100.00;96479.81;1019850;29;20071;-62
2021/04/17 01:45:18;;;;;;;35.42;19.20;;;;;;;-0.30;100.00;96474.59;1023830;29;20027;-63
2021/04/17 01:45:49;;;;;;;35.50;19.75;;;;;;;-0.38;100.00;96468.06;1023874;29;20019;-61
2021/04/17 01:46:22;;;;;;;36.42;20.33;;;;;;;-0.35;100.00;96474.03;1027624;28;20262;-62
2021/04/17 01:47:03;;;;;;;34.35;19.13;;;;;;;-0.33;100.00;96474.78;1023775;28;20011;-61
2021/04/17 01:47:33;;;;;;;35.97;20.00;;;;;;;-0.33;100.00;96470.41;1023803;29;20022;-62
2021/04/17 01:48:05;;;;;;;39.10;19.98;;;;;;;-0.33;100.00;96470.41;1031857;28;20026;-62
2021/04/17 01:48:36;;;;;;;32.15;19.13;;;;;;;-0.34;100.00;96470.50;1027703;28;20022;-62
2021/04/17 01:49:08;;;;;;;35.30;20.30;;;;;;;-0.32;100.00;96473.84;1031876;28;20093;-61
2021/04/17 01:49:42;;;;;;;37.45;20.10;;;;;;;-0.32;100.00;96474.69;1031808;28;20010;-62
2021/04/17 01:50:13;;;;;;;36.38;21.15;;;;;;;-0.31;100.00;96471.16;1031844;28;20137;-63
2021/04/17 01:50:45;;;;;;;38.00;20.83;;;;;;;-0.32;100.00;96466.03;1023782;28;20122;-62
2021/04/17 01:51:16;;;;;;;32.97;19.05;;;;;;;-0.31;100.00;96470.31;1023800;29;20026;-62
2021/04/17 01:51:47;;;;;;;34.65;19.33;;;;;;;-0.31;100.00;96471.16;1023803;29;20102;-62
2021/04/17 01:52:18;;;;;;;33.72;19.20;;;;;;;-0.33;100.00;96467.81;1023824;28;20357;-62
2021/04/17 01:52:49;;;;;;;37.05;19.77;;;;;;;-0.32;100.00;96466.84;1019742;29;20012;-62
2021/04/17 01:53:22;;;;;;;35.50;19.85;;;;;;;-0.35;100.00;96471.44;1023847;29;20094;-61
2021/04/17 01:53:55;;;;;;;36.10;20.25;;;;;;;-0.32;100.00;96479.91;1023620;29;20208;-61
2021/04/17 01:54:28;;;;;;;36.45;19.80;;;;;;;-0.32;100.00;96477.28;1024463;28;20019;-62
2021/04/17 01:54:59;;;;;;;34.35;19.23;;;;;;;-0.33;100.00;96470.41;1023679;29;20022;-60
2021/04/17 01:55:31;;;;;;;35.35;20.92;;;;;;;-0.34;100.00;96471.34;1027786;28;20030;-61
2021/04/17 01:56:02;;;;;;;37.25;19.83;;;;;;;-0.36;100.00;96470.59;1027853;28;20102;-61
2021/04/17 01:56:33;;;;;;;35.45;20.58;;;;;;;-0.35;100.00;96472.25;1031673;28;20018;-60
2021/04/17 01:57:05;;;;;;;37.03;20.35;;;;;;;-0.35;100.00;96466.22;1027775;28;20030;-62
2021/04/17 01:57:36;;;;;;;34.20;19.15;;;;;;;-0.34;100.00;96466.13;1031787;28;20465;-61
2021/04/17 01:58:07;;;;;;;32.42;18.77;;;;;;;-0.34;100.00;96466.13;1027833;28;20018;-61
2021/04/17 01:58:39;;;;;;;35.53;20.98;;;;;;;-0.36;100.00;96465.38;1027767;28;20034;-63
2021/04/17 01:59:10;;;;;;;36.22;20.30;;;;;;;-0.36;100.00;96461.94;1023787;29;20477;-62
2021/04/17 01:59:41;;;;;;;37.75;19.45;;;;;;;-0.36;100.00;96461.94;1019761;29;20502;-62
2021/04/17 02:00:12;;;;;;;35.63;20.67;;;;;;;-0.40;100.00;96462.13;1035824;28;20025;-62
2021/04/17 02:00:43;;;;;;;33.60;19.48;;;;;;;-0.44;100.00;96465.00;1031767;28;20018;-61
2021/04/17 02:01:18;;;;;;;34.88;20.27;;;;;;;-0.46;100.00;96465.09;1027715;28;20031;-62
2021/04/17 02:01:49;;;;;;;36.10;19.88;;;;;;;-0.47;100.00;96463.44;1027898;28;20041;-62
2021/04/17 02:02:20;;;;;;;36.85;21.08;;;;;;;-0.47;100.00;96467.81;1031751;28;20023;-62
2021/04/17 02:02:51;;;;;;;37.47;19.77;;;;;;;-0.48;100.00;96466.16;1023683;29;20023;-60
2021/04/17 02:03:22;;;;;;;36.90;19.35;;;;;;;-0.49;100.00;96465.28;1023628;29;20019;-62
2021/04/17 02:03:53;;;;;;;34.20;18.80;;;;;;;-0.48;100.00;96466.97;1031566;28;20511;-61
2021/04/17 02:04:24;;;;;;;37.13;19.25;;;;;;;-0.50;100.00;96458.41;1027803;28;20025;-63
2021/04/17 02:04:55;;;;;;;34.67;19.98;;;;;;;-0.51;100.00;96456.72;1027697;28;20027;-62
2021/04/17 02:05:26;;;;;;;42.53;20.83;;;;;;;-0.62;100.00;96443.53;1019798;29;20015;-63
2021/04/17 02:05:57;;;;;;;38.20;20.50;;;;;;;-0.50;100.00;96457.59;1027783;28;20477;-61
2021/04/17 02:06:28;;;;;;;36.17;20.80;;;;;;;-0.52;100.00;96457.69;1019747;29;20070;-62
2021/04/17 02:06:59;;;;;;;36.58;19.85;;;;;;;-0.52;100.00;96460.28;1027656;28;20485;-62
2021/04/17 02:07:30;;;;;;;37.55;20.23;;;;;;;-0.54;100.00;96456.94;1023743;29;20019;-62
2021/04/17 02:08:01;;;;;;;37.45;20.30;;;;;;;-0.54;100.00;96461.28;1027777;28;20078;-62
2021/04/17 02:08:34;;;;;;;34.78;19.33;;;;;;;-0.55;100.00;96459.63;1031834;28;20026;-61
2021/04/17 02:09:05;;;;;;;35.92;20.08;;;;;;;-0.59;100.00;96465.03;1031871;28;20158;-62
2021/04/17 02:09:36;;;;;;;35.45;19.92;;;;;;;-0.60;100.00;96458.13;1024348;28;20554;-61
2021/04/17 02:10:08;;;;;;;39.53;20.40;;;;;;;-0.60;100.00;96455.53;1020417;29;20023;-61
2021/04/17 02:10:39;;;;;;;37.67;20.92;;;;;;;-0.59;100.00;96461.59;1023717;29;20019;-62
2021/04/17 02:11:10;;;;;;;33.20;19.40;;;;;;;-0.61;100.00;96456.47;1027693;28;20405;-63
2021/04/17 02:11:41;;;;;;;37.30;19.98;;;;;;;-0.62;100.00;96456.56;1023768;29;20023;-61
2021/04/17 02:12:12;;;;;;;33.28;19.13;;;;;;;-0.63;100.00;96462.69;1019935;29;20115;-62
2021/04/17 02:12:43;;;;;;;35.50;19.88;;;;;;;-0.64;100.00;96467.09;1023765;29;20051;-61
2021/04/17 02:13:14;;;;;;;32.75;18.67;;;;;;;-0.65;100.00;96459.34;1019759;29;20513;-61
2021/04/17 02:13:45;;;;;;;36.97;19.50;;;;;;;-0.67;100.00;96459.44;1031066;28;20480;-61
2021/04/17 02:14:16;;;;;;;34.80;19.85;;;;;;;-0.69;100.00;96457.88;1023718;29;20446;-62
2021/04/17 02:14:47;;;;;;;35.83;20.33;;;;;;;-0.68;100.00;96465.59;1023756;29;20474;-61
2021/04/17 02:15:18;;;;;;;36.78;19.70;;;;;;;-0.77;100.00;96443.53;1024107;29;20025;-61
2021/04/17 02:15:49;;;;;;;36.63;20.55;;;;;;;-0.68;100.00;96464.75;1023663;29;20509;-62
2021/04/17 02:16:25;;;;;;;31.92;19.13;;;;;;;-0.67;100.00;96462.03;1019725;29;20087;-62
2021/04/17 02:17:08;;;;;;;31.08;17.65;;;;;;;-0.68;100.00;96465.59;1023782;29;20066;-61
2021/04/17 02:17:51;;;;;;;36.08;18.83;;;;;;;-0.69;100.00;96466.53;1027719;28;20058;-62
2021/04/17 02:18:25;;;;;;;32.90;18.33;;;;;;;-0.70;100.00;96459.63;1031691;28;20074;-62
2021/04/17 02:18:59;;;;;;;35.17;18.98;;;;;;;-0.69;100.00;96463.09;1031659;28;20030;-62
2021/04/17 02:19:50;;;;;;;39.90;19.95;;;;;;;-0.72;100.00;96466.72;1023691;29;20030;-63
2021/04/17 02:20:27;;;;;;;35.17;18.58;;;;;;;-0.77;100.00;96458.31;1039875;28;20037;-62
2021/04/17 02:21:01;;;;;;;34.10;18.70;;;;;;;-0.77;100.00;96469.63;1031827;28;20029;-62
2021/04/17 02:21:35;;;;;;;38.20;19.20;;;;;;;-0.78;100.00;96462.72;1023650;29;20022;-62
2021/04/17 02:22:06;;;;;;;33.03;18.40;;;;;;;-0.78;100.00;96461.88;1023678;29;20023;-60
2021/04/17 02:22:38;;;;;;;34.38;19.65;;;;;;;-0.77;100.00;96464.41;1031609;28;20018;-62
2021/04/17 02:23:10;;;;;;;37.08;20.33;;;;;;;-0.80;100.00;96463.72;1023702;29;20019;-61
2021/04/17 02:23:40;;;;;;;38.50;21.15;;;;;;;-0.79;100.00;96462.81;1027425;28;20473;-63
2021/04/17 02:24:12;;;;;;;36.63;20.00;;;;;;;-0.79;100.00;96462.81;1023644;29;20015;-62
2021/04/17 02:24:42;;;;;;;36.10;20.05;;;;;;;-0.79;100.00;96468.84;1035759;28;20117;-60
2021/04/17 02:25:13;;;;;;;33.80;18.98;;;;;;;-0.81;100.00;96460.28;1031688;28;20109;-62
2021/04/17 02:25:45;;;;;;;34.97;19.35;;;;;;;-0.80;100.00;96458.50;1019643;29;20027;-63
2021/04/17 02:26:15;;;;;;;34.63;19.17;;;;;;;-0.79;100.00;96463.63;1019596;29;20458;-62
2021/04/17 02:26:46;;;;;;;37.47;20.42;;;;;;;-0.80;100.00;96458.50;1023714;29;20047;-62
2021/04/17 02:27:18;;;;;;;35.63;19.92;;;;;;;-0.79;100.00;96461.03;1031764;28;20026;-62